sensor_id;sensor_type;location;lat;lon;timestamp;P1;durP1;ratioP1;P2;durP2;ratioP2
23472;SDS011;11909;52.516;13.564;2023-08-24T00:00:00;6.40;;;3.20;;
23472;SDS011;11909;52.516;13.564;2023-08-24T00:02:28;6.18;;;2.92;;
23472;SDS011;11909;52.516;13.564;2023-08-24T00:04:55;3.78;;;2.90;;
23472;SDS011;11909;52.516;13.564;2023-08-24T00:07:24;4.88;;;3.20;;
23472;SDS011;11909;52.516;13.564;2023-08-24T00:09:53;6.20;;;3.85;;
23472;SDS011;11909;52.516;13.564;2023-08-24T00:12:21;5.28;;;3.28;;
23472;SDS011;11909;52.516;13.564;2023-08-24T00:14:49;4.38;;;3.08;;
23472;SDS011;11909;52.516;13.564;2023-08-24T00:17:17;5.53;;;3.65;;
23472;SDS011;11909;52.516;13.564;2023-08-24T00:19:45;5.47;;;3.20;;
23472;SDS011;11909;52.516;13.564;2023-08-24T00:22:13;4.40;;;3.17;;
23472;SDS011;11909;52.516;13.564;2023-08-24T00:24:41;4.72;;;3.53;;
23472;SDS011;11909;52.516;13.564;2023-08-24T00:27:10;7.63;;;3.47;;
23472;SDS011;11909;52.516;13.564;2023-08-24T00:29:40;5.05;;;3.13;;
23472;SDS011;11909;52.516;13.564;2023-08-24T00:32:08;5.68;;;3.47;;
23472;SDS011;11909;52.516;13.564;2023-08-24T00:34:36;4.30;;;3.30;;
23472;SDS011;11909;52.516;13.564;2023-08-24T00:37:03;5.25;;;3.40;;
23472;SDS011;11909;52.516;13.564;2023-08-24T00:39:32;4.47;;;3.05;;
23472;SDS011;11909;52.516;13.564;2023-08-24T00:42:00;6.07;;;3.63;;
23472;SDS011;11909;52.516;13.564;2023-08-24T00:44:29;8.45;;;3.95;;
23472;SDS011;11909;52.516;13.564;2023-08-24T00:46:58;7.50;;;3.90;;
23472;SDS011;11909;52.516;13.564;2023-08-24T00:49:26;5.00;;;3.58;;
23472;SDS011;11909;52.516;13.564;2023-08-24T00:51:54;5.38;;;3.85;;
23472;SDS011;11909;52.516;13.564;2023-08-24T00:54:22;6.18;;;3.80;;
23472;SDS011;11909;52.516;13.564;2023-08-24T00:56:50;6.25;;;3.53;;
23472;SDS011;11909;52.516;13.564;2023-08-24T00:59:18;7.82;;;3.78;;
23472;SDS011;11909;52.516;13.564;2023-08-24T01:01:48;6.47;;;4.40;;
23472;SDS011;11909;52.516;13.564;2023-08-24T01:04:17;5.13;;;4.10;;
23472;SDS011;11909;52.516;13.564;2023-08-24T01:06:45;6.93;;;3.90;;
23472;SDS011;11909;52.516;13.564;2023-08-24T01:09:13;7.22;;;4.32;;
23472;SDS011;11909;52.516;13.564;2023-08-24T01:11:43;6.10;;;4.25;;
23472;SDS011;11909;52.516;13.564;2023-08-24T01:14:20;6.80;;;3.72;;
23472;SDS011;11909;52.516;13.564;2023-08-24T01:16:58;6.10;;;3.88;;
23472;SDS011;11909;52.516;13.564;2023-08-24T01:19:34;5.40;;;3.75;;
23472;SDS011;11909;52.516;13.564;2023-08-24T01:22:08;6.15;;;3.97;;
23472;SDS011;11909;52.516;13.564;2023-08-24T01:24:49;5.38;;;3.88;;
23472;SDS011;11909;52.516;13.564;2023-08-24T01:27:23;6.15;;;4.03;;
23472;SDS011;11909;52.516;13.564;2023-08-24T01:29:52;4.63;;;3.38;;
23472;SDS011;11909;52.516;13.564;2023-08-24T01:32:23;9.50;;;3.70;;
23472;SDS011;11909;52.516;13.564;2023-08-24T01:34:51;6.13;;;3.80;;
23472;SDS011;11909;52.516;13.564;2023-08-24T01:37:19;6.40;;;3.80;;
23472;SDS011;11909;52.516;13.564;2023-08-24T01:39:49;4.88;;;3.47;;
23472;SDS011;11909;52.516;13.564;2023-08-24T01:42:23;7.40;;;4.07;;
23472;SDS011;11909;52.516;13.564;2023-08-24T01:44:55;8.60;;;3.92;;
23472;SDS011;11909;52.516;13.564;2023-08-24T01:47:26;5.95;;;3.97;;
23472;SDS011;11909;52.516;13.564;2023-08-24T01:49:56;5.30;;;4.07;;
23472;SDS011;11909;52.516;13.564;2023-08-24T01:52:25;7.03;;;4.53;;
23472;SDS011;11909;52.516;13.564;2023-08-24T01:54:54;8.32;;;4.35;;
23472;SDS011;11909;52.516;13.564;2023-08-24T01:57:23;6.80;;;4.15;;
23472;SDS011;11909;52.516;13.564;2023-08-24T01:59:52;4.97;;;4.17;;
23472;SDS011;11909;52.516;13.564;2023-08-24T02:02:20;7.30;;;4.30;;
23472;SDS011;11909;52.516;13.564;2023-08-24T02:04:48;4.85;;;4.10;;
23472;SDS011;11909;52.516;13.564;2023-08-24T02:07:16;8.13;;;4.93;;
23472;SDS011;11909;52.516;13.564;2023-08-24T02:09:44;7.68;;;4.25;;
23472;SDS011;11909;52.516;13.564;2023-08-24T02:12:12;5.90;;;4.15;;
23472;SDS011;11909;52.516;13.564;2023-08-24T02:14:41;9.32;;;5.07;;
23472;SDS011;11909;52.516;13.564;2023-08-24T02:17:09;11.15;;;5.00;;
23472;SDS011;11909;52.516;13.564;2023-08-24T02:19:37;7.03;;;4.75;;
23472;SDS011;11909;52.516;13.564;2023-08-24T02:22:05;9.15;;;4.93;;
23472;SDS011;11909;52.516;13.564;2023-08-24T02:24:33;6.35;;;4.78;;
23472;SDS011;11909;52.516;13.564;2023-08-24T02:27:00;7.03;;;5.93;;
23472;SDS011;11909;52.516;13.564;2023-08-24T02:29:29;9.50;;;4.93;;
23472;SDS011;11909;52.516;13.564;2023-08-24T02:31:58;7.43;;;5.32;;
23472;SDS011;11909;52.516;13.564;2023-08-24T02:34:26;7.05;;;5.13;;
23472;SDS011;11909;52.516;13.564;2023-08-24T02:36:56;7.78;;;5.13;;
23472;SDS011;11909;52.516;13.564;2023-08-24T02:39:24;7.75;;;5.00;;
23472;SDS011;11909;52.516;13.564;2023-08-24T02:41:52;8.50;;;5.20;;
23472;SDS011;11909;52.516;13.564;2023-08-24T02:44:20;7.22;;;4.95;;
23472;SDS011;11909;52.516;13.564;2023-08-24T02:46:48;6.93;;;5.00;;
23472;SDS011;11909;52.516;13.564;2023-08-24T02:49:18;7.50;;;5.60;;
23472;SDS011;11909;52.516;13.564;2023-08-24T02:51:45;10.27;;;5.55;;
23472;SDS011;11909;52.516;13.564;2023-08-24T02:54:13;8.27;;;5.53;;
23472;SDS011;11909;52.516;13.564;2023-08-24T02:56:41;12.38;;;5.95;;
23472;SDS011;11909;52.516;13.564;2023-08-24T02:59:09;9.82;;;6.40;;
23472;SDS011;11909;52.516;13.564;2023-08-24T03:01:37;13.70;;;6.68;;
23472;SDS011;11909;52.516;13.564;2023-08-24T03:04:07;9.63;;;6.25;;
23472;SDS011;11909;52.516;13.564;2023-08-24T03:06:37;11.25;;;6.65;;
23472;SDS011;11909;52.516;13.564;2023-08-24T03:09:04;8.73;;;5.47;;
23472;SDS011;11909;52.516;13.564;2023-08-24T03:11:32;9.50;;;5.85;;
23472;SDS011;11909;52.516;13.564;2023-08-24T03:14:00;9.18;;;6.05;;
23472;SDS011;11909;52.516;13.564;2023-08-24T03:16:28;7.75;;;5.38;;
23472;SDS011;11909;52.516;13.564;2023-08-24T03:18:56;9.88;;;6.03;;
23472;SDS011;11909;52.516;13.564;2023-08-24T03:21:24;9.80;;;5.72;;
23472;SDS011;11909;52.516;13.564;2023-08-24T03:23:54;10.88;;;6.32;;
23472;SDS011;11909;52.516;13.564;2023-08-24T03:26:21;8.38;;;4.93;;
23472;SDS011;11909;52.516;13.564;2023-08-24T03:28:50;7.20;;;4.78;;
23472;SDS011;11909;52.516;13.564;2023-08-24T03:31:18;7.25;;;5.50;;
23472;SDS011;11909;52.516;13.564;2023-08-24T03:33:46;7.55;;;4.85;;
23472;SDS011;11909;52.516;13.564;2023-08-24T03:36:14;12.23;;;6.10;;
23472;SDS011;11909;52.516;13.564;2023-08-24T03:38:42;9.68;;;6.15;;
23472;SDS011;11909;52.516;13.564;2023-08-24T03:41:11;7.97;;;6.00;;
23472;SDS011;11909;52.516;13.564;2023-08-24T03:43:39;8.02;;;5.28;;
23472;SDS011;11909;52.516;13.564;2023-08-24T03:46:07;8.35;;;5.88;;
23472;SDS011;11909;52.516;13.564;2023-08-24T03:48:34;7.50;;;5.38;;
23472;SDS011;11909;52.516;13.564;2023-08-24T03:51:02;7.78;;;5.80;;
23472;SDS011;11909;52.516;13.564;2023-08-24T03:53:30;10.77;;;6.10;;
23472;SDS011;11909;52.516;13.564;2023-08-24T03:55:58;9.65;;;5.80;;
23472;SDS011;11909;52.516;13.564;2023-08-24T03:58:28;7.45;;;5.20;;
23472;SDS011;11909;52.516;13.564;2023-08-24T04:00:56;7.78;;;5.70;;
23472;SDS011;11909;52.516;13.564;2023-08-24T04:03:23;10.93;;;5.47;;
23472;SDS011;11909;52.516;13.564;2023-08-24T04:05:52;7.82;;;5.53;;
23472;SDS011;11909;52.516;13.564;2023-08-24T04:08:19;8.30;;;5.40;;
23472;SDS011;11909;52.516;13.564;2023-08-24T04:10:47;8.25;;;5.80;;
23472;SDS011;11909;52.516;13.564;2023-08-24T04:13:15;7.18;;;5.45;;
23472;SDS011;11909;52.516;13.564;2023-08-24T04:15:45;8.80;;;5.93;;
23472;SDS011;11909;52.516;13.564;2023-08-24T04:18:13;8.45;;;5.30;;
23472;SDS011;11909;52.516;13.564;2023-08-24T04:20:41;7.50;;;5.15;;
23472;SDS011;11909;52.516;13.564;2023-08-24T04:23:08;13.15;;;5.18;;
23472;SDS011;11909;52.516;13.564;2023-08-24T04:25:38;6.80;;;5.00;;
23472;SDS011;11909;52.516;13.564;2023-08-24T04:28:06;6.75;;;5.13;;
23472;SDS011;11909;52.516;13.564;2023-08-24T04:30:35;7.53;;;4.85;;
23472;SDS011;11909;52.516;13.564;2023-08-24T04:33:04;7.28;;;5.30;;
23472;SDS011;11909;52.516;13.564;2023-08-24T04:35:33;10.50;;;5.53;;
23472;SDS011;11909;52.516;13.564;2023-08-24T04:38:01;10.90;;;5.00;;
23472;SDS011;11909;52.516;13.564;2023-08-24T04:40:30;7.50;;;5.30;;
23472;SDS011;11909;52.516;13.564;2023-08-24T04:43:10;6.25;;;4.70;;
23472;SDS011;11909;52.516;13.564;2023-08-24T04:45:38;8.55;;;4.75;;
23472;SDS011;11909;52.516;13.564;2023-08-24T04:48:07;8.05;;;4.65;;
23472;SDS011;11909;52.516;13.564;2023-08-24T04:50:35;7.55;;;4.82;;
23472;SDS011;11909;52.516;13.564;2023-08-24T04:53:03;8.52;;;4.90;;
23472;SDS011;11909;52.516;13.564;2023-08-24T04:55:31;6.28;;;4.82;;
23472;SDS011;11909;52.516;13.564;2023-08-24T04:57:59;6.78;;;4.82;;
23472;SDS011;11909;52.516;13.564;2023-08-24T05:00:27;5.47;;;3.90;;
23472;SDS011;11909;52.516;13.564;2023-08-24T05:02:55;6.07;;;4.65;;
23472;SDS011;11909;52.516;13.564;2023-08-24T05:05:24;5.72;;;4.45;;
23472;SDS011;11909;52.516;13.564;2023-08-24T05:07:53;5.45;;;3.72;;
23472;SDS011;11909;52.516;13.564;2023-08-24T05:10:21;7.43;;;5.30;;
23472;SDS011;11909;52.516;13.564;2023-08-24T05:12:49;45.85;;;27.67;;
23472;SDS011;11909;52.516;13.564;2023-08-24T05:15:17;7.40;;;5.22;;
23472;SDS011;11909;52.516;13.564;2023-08-24T05:17:45;8.65;;;5.50;;
23472;SDS011;11909;52.516;13.564;2023-08-24T05:20:13;8.32;;;5.22;;
23472;SDS011;11909;52.516;13.564;2023-08-24T05:22:43;6.75;;;4.30;;
23472;SDS011;11909;52.516;13.564;2023-08-24T05:25:11;6.88;;;4.60;;
23472;SDS011;11909;52.516;13.564;2023-08-24T05:27:39;8.27;;;4.80;;
23472;SDS011;11909;52.516;13.564;2023-08-24T05:30:07;10.57;;;5.45;;
23472;SDS011;11909;52.516;13.564;2023-08-24T05:32:36;7.22;;;4.95;;
23472;SDS011;11909;52.516;13.564;2023-08-24T05:35:05;7.65;;;4.53;;
23472;SDS011;11909;52.516;13.564;2023-08-24T05:37:34;7.47;;;4.43;;
23472;SDS011;11909;52.516;13.564;2023-08-24T05:40:04;6.55;;;4.90;;
23472;SDS011;11909;52.516;13.564;2023-08-24T05:42:33;6.43;;;4.57;;
23472;SDS011;11909;52.516;13.564;2023-08-24T05:45:03;5.90;;;4.60;;
23472;SDS011;11909;52.516;13.564;2023-08-24T05:47:31;10.82;;;5.43;;
23472;SDS011;11909;52.516;13.564;2023-08-24T05:49:59;8.85;;;4.90;;
23472;SDS011;11909;52.516;13.564;2023-08-24T05:52:27;6.90;;;3.83;;
23472;SDS011;11909;52.516;13.564;2023-08-24T05:54:55;6.43;;;4.05;;
23472;SDS011;11909;52.516;13.564;2023-08-24T05:57:24;7.20;;;4.00;;
23472;SDS011;11909;52.516;13.564;2023-08-24T05:59:52;6.60;;;3.78;;
23472;SDS011;11909;52.516;13.564;2023-08-24T06:02:20;5.03;;;3.88;;
23472;SDS011;11909;52.516;13.564;2023-08-24T06:04:48;9.60;;;4.63;;
23472;SDS011;11909;52.516;13.564;2023-08-24T06:07:17;5.03;;;3.53;;
23472;SDS011;11909;52.516;13.564;2023-08-24T06:09:44;9.27;;;4.22;;
23472;SDS011;11909;52.516;13.564;2023-08-24T06:12:12;4.57;;;3.53;;
23472;SDS011;11909;52.516;13.564;2023-08-24T06:14:41;10.93;;;4.15;;
23472;SDS011;11909;52.516;13.564;2023-08-24T06:17:09;6.80;;;4.05;;
23472;SDS011;11909;52.516;13.564;2023-08-24T06:19:37;9.23;;;3.92;;
23472;SDS011;11909;52.516;13.564;2023-08-24T06:22:05;6.20;;;3.50;;
23472;SDS011;11909;52.516;13.564;2023-08-24T06:24:33;9.68;;;3.80;;
23472;SDS011;11909;52.516;13.564;2023-08-24T06:27:01;5.50;;;3.80;;
23472;SDS011;11909;52.516;13.564;2023-08-24T06:29:29;9.13;;;4.00;;
23472;SDS011;11909;52.516;13.564;2023-08-24T06:31:58;8.25;;;3.85;;
23472;SDS011;11909;52.516;13.564;2023-08-24T06:34:26;4.50;;;3.22;;
23472;SDS011;11909;52.516;13.564;2023-08-24T06:36:54;6.63;;;3.72;;
23472;SDS011;11909;52.516;13.564;2023-08-24T06:39:23;11.02;;;3.60;;
23472;SDS011;11909;52.516;13.564;2023-08-24T06:41:51;5.30;;;3.08;;
23472;SDS011;11909;52.516;13.564;2023-08-24T06:44:19;6.13;;;3.15;;
23472;SDS011;11909;52.516;13.564;2023-08-24T06:46:46;5.38;;;2.85;;
23472;SDS011;11909;52.516;13.564;2023-08-24T06:49:16;9.00;;;5.45;;
23472;SDS011;11909;52.516;13.564;2023-08-24T06:51:44;6.57;;;2.90;;
23472;SDS011;11909;52.516;13.564;2023-08-24T06:54:12;6.40;;;3.33;;
23472;SDS011;11909;52.516;13.564;2023-08-24T06:56:40;5.90;;;2.80;;
23472;SDS011;11909;52.516;13.564;2023-08-24T06:59:09;5.00;;;2.90;;
23472;SDS011;11909;52.516;13.564;2023-08-24T07:01:39;4.50;;;2.67;;
23472;SDS011;11909;52.516;13.564;2023-08-24T07:04:07;7.45;;;2.58;;
23472;SDS011;11909;52.516;13.564;2023-08-24T07:06:37;4.65;;;2.67;;
23472;SDS011;11909;52.516;13.564;2023-08-24T07:09:05;9.60;;;3.97;;
23472;SDS011;11909;52.516;13.564;2023-08-24T07:11:33;6.55;;;2.65;;
23472;SDS011;11909;52.516;13.564;2023-08-24T07:14:02;5.90;;;2.97;;
23472;SDS011;11909;52.516;13.564;2023-08-24T07:16:29;4.07;;;2.58;;
23472;SDS011;11909;52.516;13.564;2023-08-24T07:18:57;5.85;;;2.38;;
23472;SDS011;11909;52.516;13.564;2023-08-24T07:21:25;8.65;;;2.38;;
23472;SDS011;11909;52.516;13.564;2023-08-24T07:23:55;7.22;;;2.42;;
23472;SDS011;11909;52.516;13.564;2023-08-24T07:26:23;4.57;;;2.15;;
23472;SDS011;11909;52.516;13.564;2023-08-24T07:28:52;3.53;;;2.28;;
23472;SDS011;11909;52.516;13.564;2023-08-24T07:31:20;6.72;;;2.20;;
23472;SDS011;11909;52.516;13.564;2023-08-24T07:33:48;5.60;;;2.53;;
23472;SDS011;11909;52.516;13.564;2023-08-24T07:36:16;4.60;;;2.97;;
23472;SDS011;11909;52.516;13.564;2023-08-24T07:38:45;7.30;;;2.97;;
23472;SDS011;11909;52.516;13.564;2023-08-24T07:41:15;4.22;;;2.30;;
23472;SDS011;11909;52.516;13.564;2023-08-24T07:43:44;6.05;;;2.95;;
23472;SDS011;11909;52.516;13.564;2023-08-24T07:46:12;6.82;;;2.88;;
23472;SDS011;11909;52.516;13.564;2023-08-24T07:48:40;4.10;;;2.42;;
23472;SDS011;11909;52.516;13.564;2023-08-24T07:51:08;4.82;;;2.00;;
23472;SDS011;11909;52.516;13.564;2023-08-24T07:53:36;4.75;;;2.53;;
23472;SDS011;11909;52.516;13.564;2023-08-24T07:56:04;6.40;;;2.67;;
23472;SDS011;11909;52.516;13.564;2023-08-24T07:58:34;9.18;;;2.80;;
23472;SDS011;11909;52.516;13.564;2023-08-24T08:01:03;5.22;;;2.30;;
23472;SDS011;11909;52.516;13.564;2023-08-24T08:03:31;78.05;;;49.28;;
23472;SDS011;11909;52.516;13.564;2023-08-24T08:06:00;80.23;;;54.00;;
23472;SDS011;11909;52.516;13.564;2023-08-24T08:08:28;40.70;;;29.52;;
23472;SDS011;11909;52.516;13.564;2023-08-24T08:11:00;9.07;;;2.65;;
23472;SDS011;11909;52.516;13.564;2023-08-24T08:13:29;3.20;;;2.30;;
23472;SDS011;11909;52.516;13.564;2023-08-24T08:16:03;4.90;;;2.08;;
23472;SDS011;11909;52.516;13.564;2023-08-24T08:18:32;6.40;;;2.15;;
23472;SDS011;11909;52.516;13.564;2023-08-24T08:21:01;11.18;;;2.95;;
23472;SDS011;11909;52.516;13.564;2023-08-24T08:23:35;4.90;;;2.22;;
23472;SDS011;11909;52.516;13.564;2023-08-24T08:26:03;5.55;;;2.22;;
23472;SDS011;11909;52.516;13.564;2023-08-24T08:28:31;6.07;;;4.20;;
23472;SDS011;11909;52.516;13.564;2023-08-24T08:31:02;6.47;;;3.50;;
23472;SDS011;11909;52.516;13.564;2023-08-24T08:33:30;3.75;;;2.10;;
23472;SDS011;11909;52.516;13.564;2023-08-24T08:35:58;4.60;;;2.22;;
23472;SDS011;11909;52.516;13.564;2023-08-24T08:38:27;6.72;;;2.05;;
23472;SDS011;11909;52.516;13.564;2023-08-24T08:40:55;5.97;;;2.33;;
23472;SDS011;11909;52.516;13.564;2023-08-24T08:43:24;6.95;;;2.42;;
23472;SDS011;11909;52.516;13.564;2023-08-24T08:45:52;4.25;;;2.17;;
23472;SDS011;11909;52.516;13.564;2023-08-24T08:48:24;5.03;;;2.50;;
23472;SDS011;11909;52.516;13.564;2023-08-24T08:50:53;5.32;;;2.22;;
23472;SDS011;11909;52.516;13.564;2023-08-24T08:53:22;6.18;;;2.47;;
23472;SDS011;11909;52.516;13.564;2023-08-24T08:55:51;6.53;;;2.20;;
23472;SDS011;11909;52.516;13.564;2023-08-24T08:58:20;4.22;;;2.22;;
23472;SDS011;11909;52.516;13.564;2023-08-24T09:00:48;4.90;;;2.10;;
23472;SDS011;11909;52.516;13.564;2023-08-24T09:03:18;4.28;;;2.00;;
23472;SDS011;11909;52.516;13.564;2023-08-24T09:05:48;6.22;;;2.00;;
23472;SDS011;11909;52.516;13.564;2023-08-24T09:08:16;4.75;;;2.20;;
23472;SDS011;11909;52.516;13.564;2023-08-24T09:10:44;17.83;;;11.82;;
23472;SDS011;11909;52.516;13.564;2023-08-24T09:13:13;24.17;;;16.00;;
23472;SDS011;11909;52.516;13.564;2023-08-24T09:15:40;7.28;;;2.80;;
23472;SDS011;11909;52.516;13.564;2023-08-24T09:18:09;3.78;;;1.88;;
23472;SDS011;11909;52.516;13.564;2023-08-24T09:20:36;5.43;;;2.15;;
23472;SDS011;11909;52.516;13.564;2023-08-24T09:23:06;5.25;;;2.08;;
23472;SDS011;11909;52.516;13.564;2023-08-24T09:25:45;5.60;;;1.90;;
23472;SDS011;11909;52.516;13.564;2023-08-24T09:28:14;4.57;;;2.10;;
23472;SDS011;11909;52.516;13.564;2023-08-24T09:30:52;3.33;;;1.92;;
23472;SDS011;11909;52.516;13.564;2023-08-24T09:33:21;4.03;;;1.83;;
23472;SDS011;11909;52.516;13.564;2023-08-24T09:35:52;7.50;;;2.25;;
23472;SDS011;11909;52.516;13.564;2023-08-24T09:38:23;8.10;;;2.10;;
23472;SDS011;11909;52.516;13.564;2023-08-24T09:40:51;6.00;;;2.47;;
23472;SDS011;11909;52.516;13.564;2023-08-24T09:43:20;2.72;;;1.80;;
23472;SDS011;11909;52.516;13.564;2023-08-24T09:45:49;3.30;;;1.80;;
23472;SDS011;11909;52.516;13.564;2023-08-24T09:48:18;5.13;;;1.90;;
23472;SDS011;11909;52.516;13.564;2023-08-24T09:50:47;7.30;;;1.83;;
23472;SDS011;11909;52.516;13.564;2023-08-24T09:53:17;3.50;;;1.97;;
23472;SDS011;11909;52.516;13.564;2023-08-24T09:55:52;13.68;;;8.93;;
23472;SDS011;11909;52.516;13.564;2023-08-24T09:58:22;8.55;;;3.80;;
23472;SDS011;11909;52.516;13.564;2023-08-24T10:00:51;9.07;;;1.90;;
23472;SDS011;11909;52.516;13.564;2023-08-24T10:03:20;4.50;;;1.85;;
23472;SDS011;11909;52.516;13.564;2023-08-24T10:05:53;3.53;;;1.75;;
23472;SDS011;11909;52.516;13.564;2023-08-24T10:08:31;6.28;;;1.98;;
23472;SDS011;11909;52.516;13.564;2023-08-24T10:11:05;3.22;;;1.50;;
23472;SDS011;11909;52.516;13.564;2023-08-24T10:13:41;7.65;;;2.03;;
23472;SDS011;11909;52.516;13.564;2023-08-24T10:16:15;4.07;;;1.67;;
23472;SDS011;11909;52.516;13.564;2023-08-24T10:18:45;5.20;;;1.88;;
23472;SDS011;11909;52.516;13.564;2023-08-24T10:21:14;2.88;;;1.92;;
23472;SDS011;11909;52.516;13.564;2023-08-24T10:23:43;4.68;;;1.70;;
23472;SDS011;11909;52.516;13.564;2023-08-24T10:26:14;3.42;;;1.60;;
23472;SDS011;11909;52.516;13.564;2023-08-24T10:28:45;6.13;;;1.70;;
23472;SDS011;11909;52.516;13.564;2023-08-24T10:31:15;6.53;;;1.63;;
23472;SDS011;11909;52.516;13.564;2023-08-24T10:33:43;3.33;;;1.45;;
23472;SDS011;11909;52.516;13.564;2023-08-24T10:38:41;2.50;;;1.63;;
23472;SDS011;11909;52.516;13.564;2023-08-24T10:41:09;4.10;;;1.67;;
23472;SDS011;11909;52.516;13.564;2023-08-24T10:43:48;1.63;;;1.40;;
23472;SDS011;11909;52.516;13.564;2023-08-24T10:46:18;3.92;;;1.55;;
23472;SDS011;11909;52.516;13.564;2023-08-24T10:48:58;3.40;;;1.60;;
23472;SDS011;11909;52.516;13.564;2023-08-24T10:51:27;9.02;;;1.90;;
23472;SDS011;11909;52.516;13.564;2023-08-24T10:53:56;4.28;;;1.55;;
23472;SDS011;11909;52.516;13.564;2023-08-24T10:56:30;3.17;;;1.70;;
23472;SDS011;11909;52.516;13.564;2023-08-24T10:59:12;4.75;;;1.60;;
23472;SDS011;11909;52.516;13.564;2023-08-24T11:02:17;4.25;;;1.85;;
23472;SDS011;11909;52.516;13.564;2023-08-24T11:05:05;2.42;;;1.40;;
23472;SDS011;11909;52.516;13.564;2023-08-24T11:07:34;6.10;;;1.73;;
23472;SDS011;11909;52.516;13.564;2023-08-24T11:10:11;3.35;;;1.90;;
23472;SDS011;11909;52.516;13.564;2023-08-24T11:15:39;3.72;;;1.83;;
23472;SDS011;11909;52.516;13.564;2023-08-24T11:18:12;4.10;;;1.67;;
23472;SDS011;11909;52.516;13.564;2023-08-24T11:20:42;4.30;;;1.80;;
23472;SDS011;11909;52.516;13.564;2023-08-24T11:23:10;9.00;;;2.25;;
23472;SDS011;11909;52.516;13.564;2023-08-24T11:25:38;3.55;;;1.70;;
23472;SDS011;11909;52.516;13.564;2023-08-24T11:28:07;8.00;;;2.28;;
23472;SDS011;11909;52.516;13.564;2023-08-24T11:30:34;5.28;;;2.08;;
23472;SDS011;11909;52.516;13.564;2023-08-24T11:33:04;3.88;;;1.73;;
23472;SDS011;11909;52.516;13.564;2023-08-24T11:35:35;4.20;;;2.10;;
23472;SDS011;11909;52.516;13.564;2023-08-24T11:38:03;8.48;;;2.10;;
23472;SDS011;11909;52.516;13.564;2023-08-24T11:40:31;3.38;;;2.22;;
23472;SDS011;11909;52.516;13.564;2023-08-24T11:43:00;3.63;;;1.90;;
23472;SDS011;11909;52.516;13.564;2023-08-24T11:45:31;5.22;;;2.10;;
23472;SDS011;11909;52.516;13.564;2023-08-24T11:48:00;6.72;;;2.45;;
23472;SDS011;11909;52.516;13.564;2023-08-24T11:50:32;7.65;;;2.55;;
23472;SDS011;11909;52.516;13.564;2023-08-24T11:53:01;4.20;;;2.20;;
23472;SDS011;11909;52.516;13.564;2023-08-24T11:55:29;5.05;;;2.05;;
23472;SDS011;11909;52.516;13.564;2023-08-24T11:57:57;3.85;;;1.98;;
23472;SDS011;11909;52.516;13.564;2023-08-24T12:00:26;5.35;;;2.00;;
23472;SDS011;11909;52.516;13.564;2023-08-24T12:02:55;4.60;;;2.05;;
23472;SDS011;11909;52.516;13.564;2023-08-24T12:05:25;3.17;;;1.95;;
23472;SDS011;11909;52.516;13.564;2023-08-24T12:07:56;4.40;;;2.10;;
23472;SDS011;11909;52.516;13.564;2023-08-24T12:10:23;7.72;;;2.50;;
23472;SDS011;11909;52.516;13.564;2023-08-24T12:13:00;5.43;;;1.95;;
23472;SDS011;11909;52.516;13.564;2023-08-24T12:15:29;5.28;;;2.00;;
23472;SDS011;11909;52.516;13.564;2023-08-24T12:17:58;7.00;;;2.00;;
23472;SDS011;11909;52.516;13.564;2023-08-24T12:20:34;5.38;;;2.20;;
23472;SDS011;11909;52.516;13.564;2023-08-24T12:23:05;4.80;;;1.90;;
23472;SDS011;11909;52.516;13.564;2023-08-24T12:25:35;4.10;;;2.17;;
23472;SDS011;11909;52.516;13.564;2023-08-24T12:28:08;4.40;;;2.08;;
23472;SDS011;11909;52.516;13.564;2023-08-24T12:30:47;3.80;;;1.83;;
23472;SDS011;11909;52.516;13.564;2023-08-24T12:33:22;6.75;;;2.35;;
23472;SDS011;11909;52.516;13.564;2023-08-24T12:35:50;4.00;;;2.40;;
23472;SDS011;11909;52.516;13.564;2023-08-24T12:38:20;5.10;;;2.00;;
23472;SDS011;11909;52.516;13.564;2023-08-24T12:40:48;5.00;;;2.17;;
23472;SDS011;11909;52.516;13.564;2023-08-24T12:43:16;5.15;;;2.20;;
23472;SDS011;11909;52.516;13.564;2023-08-24T12:45:44;5.45;;;2.33;;
23472;SDS011;11909;52.516;13.564;2023-08-24T12:48:12;3.88;;;2.20;;
23472;SDS011;11909;52.516;13.564;2023-08-24T12:50:40;5.35;;;2.15;;
23472;SDS011;11909;52.516;13.564;2023-08-24T12:53:08;4.57;;;2.10;;
23472;SDS011;11909;52.516;13.564;2023-08-24T12:55:38;7.18;;;2.00;;
23472;SDS011;11909;52.516;13.564;2023-08-24T12:58:07;2.88;;;2.08;;
23472;SDS011;11909;52.516;13.564;2023-08-24T13:00:35;3.80;;;2.13;;
23472;SDS011;11909;52.516;13.564;2023-08-24T13:03:03;6.93;;;2.22;;
23472;SDS011;11909;52.516;13.564;2023-08-24T13:05:31;4.90;;;1.90;;
23472;SDS011;11909;52.516;13.564;2023-08-24T13:08:00;4.18;;;1.88;;
23472;SDS011;11909;52.516;13.564;2023-08-24T13:10:28;3.58;;;2.08;;
23472;SDS011;11909;52.516;13.564;2023-08-24T13:12:57;4.53;;;2.25;;
23472;SDS011;11909;52.516;13.564;2023-08-24T13:15:26;4.32;;;2.20;;
23472;SDS011;11909;52.516;13.564;2023-08-24T13:17:53;3.97;;;2.10;;
23472;SDS011;11909;52.516;13.564;2023-08-24T13:20:21;6.20;;;2.50;;
23472;SDS011;11909;52.516;13.564;2023-08-24T13:22:49;8.50;;;2.50;;
23472;SDS011;11909;52.516;13.564;2023-08-24T13:25:17;3.72;;;2.03;;
23472;SDS011;11909;52.516;13.564;2023-08-24T13:27:46;4.43;;;1.95;;
23472;SDS011;11909;52.516;13.564;2023-08-24T13:30:15;3.83;;;1.88;;
23472;SDS011;11909;52.516;13.564;2023-08-24T13:32:44;5.47;;;2.03;;
23472;SDS011;11909;52.516;13.564;2023-08-24T13:35:11;3.38;;;2.10;;
23472;SDS011;11909;52.516;13.564;2023-08-24T13:37:39;4.35;;;2.17;;
23472;SDS011;11909;52.516;13.564;2023-08-24T13:40:07;7.03;;;2.17;;
23472;SDS011;11909;52.516;13.564;2023-08-24T13:42:36;6.10;;;2.00;;
23472;SDS011;11909;52.516;13.564;2023-08-24T13:45:04;6.88;;;2.15;;
23472;SDS011;11909;52.516;13.564;2023-08-24T13:47:34;11.02;;;2.20;;
23472;SDS011;11909;52.516;13.564;2023-08-24T13:50:02;3.28;;;2.00;;
23472;SDS011;11909;52.516;13.564;2023-08-24T13:52:30;5.38;;;2.05;;
23472;SDS011;11909;52.516;13.564;2023-08-24T13:54:58;4.95;;;2.10;;
23472;SDS011;11909;52.516;13.564;2023-08-24T13:57:38;2.63;;;1.60;;
23472;SDS011;11909;52.516;13.564;2023-08-24T14:00:06;5.72;;;2.10;;
23472;SDS011;11909;52.516;13.564;2023-08-24T14:02:37;4.93;;;2.15;;
23472;SDS011;11909;52.516;13.564;2023-08-24T14:05:05;4.30;;;2.10;;
23472;SDS011;11909;52.516;13.564;2023-08-24T14:07:36;7.30;;;2.17;;
23472;SDS011;11909;52.516;13.564;2023-08-24T14:10:04;5.68;;;2.10;;
23472;SDS011;11909;52.516;13.564;2023-08-24T14:12:34;7.93;;;2.13;;
23472;SDS011;11909;52.516;13.564;2023-08-24T14:15:02;5.57;;;2.25;;
23472;SDS011;11909;52.516;13.564;2023-08-24T14:17:30;3.88;;;2.10;;
23472;SDS011;11909;52.516;13.564;2023-08-24T14:20:00;7.45;;;2.33;;
23472;SDS011;11909;52.516;13.564;2023-08-24T14:22:30;4.35;;;2.42;;
23472;SDS011;11909;52.516;13.564;2023-08-24T14:24:58;3.78;;;2.10;;
23472;SDS011;11909;52.516;13.564;2023-08-24T14:27:26;4.85;;;2.22;;
23472;SDS011;11909;52.516;13.564;2023-08-24T14:29:54;4.70;;;2.20;;
23472;SDS011;11909;52.516;13.564;2023-08-24T14:32:22;4.18;;;1.90;;
23472;SDS011;11909;52.516;13.564;2023-08-24T14:34:50;4.40;;;2.05;;
23472;SDS011;11909;52.516;13.564;2023-08-24T14:37:19;2.97;;;1.90;;
23472;SDS011;11909;52.516;13.564;2023-08-24T14:39:47;2.85;;;2.20;;
23472;SDS011;11909;52.516;13.564;2023-08-24T14:42:15;3.97;;;2.00;;
23472;SDS011;11909;52.516;13.564;2023-08-24T14:44:43;3.03;;;2.17;;
23472;SDS011;11909;52.516;13.564;2023-08-24T14:47:11;5.10;;;2.10;;
23472;SDS011;11909;52.516;13.564;2023-08-24T14:49:39;3.75;;;2.03;;